Time;durP1;ratioP1;P1;durP2;ratioP2;P2;SDS_P1;SDS_P2;PMS_P1;PMS_P2;Temp;Humidity;BMP_temperature;BMP_pressure;BME280_temperature;BME280_humidity;BME280_pressure;Samples;Min_cycle;Max_cycle;Signal;HPM_P1;HPM_P2
2022/01/06 00:00:12;;;;;;;8.80;3.73;;;3.70;88.10;;;;;;4954010;28;20843;-75
2022/01/06 00:02:39;;;;;;;9.40;4.00;;;3.70;88.10;;;;;;4950322;29;20192;-76
2022/01/06 00:05:05;;;;;;;7.60;3.10;;;3.80;88.00;;;;;;4954723;28;20420;-75
2022/01/06 00:07:31;;;;;;;11.97;3.40;;;3.80;87.70;;;;;;4951503;28;20510;-75
2022/01/06 00:09:57;;;;;;;7.47;3.93;;;3.70;87.70;;;;;;4951832;28;20478;-76
2022/01/06 00:12:30;;;;;;;8.87;4.17;;;3.80;87.80;;;;;;4953926;28;21129;-74
2022/01/06 00:15:07;;;;;;;7.70;3.67;;;3.80;87.60;;;;;;4949742;28;20678;-76
2022/01/06 00:17:44;;;;;;;6.90;4.30;;;3.80;87.70;;;;;;4953244;28;20458;-75
2022/01/06 00:25:29;;;;;;;7.27;4.17;;;3.80;87.70;;;;;;4953744;28;20477;-76
2022/01/06 00:27:55;;;;;;;7.80;4.10;;;3.90;87.80;;;;;;4954090;28;20427;-76
2022/01/06 00:30:20;;;;;;;6.00;3.67;;;3.90;87.80;;;;;;4954693;29;20188;-75
2022/01/06 00:32:46;;;;;;;8.17;3.80;;;3.80;87.70;;;;;;4959810;28;20266;-75
2022/01/06 00:35:12;;;;;;;10.93;4.47;;;3.80;87.80;;;;;;4956925;28;20282;-77
2022/01/06 00:37:38;;;;;;;12.40;3.93;;;3.80;88.00;;;;;;4963010;28;20194;-74
2022/01/06 00:40:04;;;;;;;7.10;4.10;;;3.80;88.40;;;;;;4952600;28;20423;-74
2022/01/06 00:42:30;;;;;;;9.87;4.00;;;3.80;88.40;;;;;;4957892;28;20216;-75
2022/01/06 00:44:56;;;;;;;9.50;4.30;;;3.80;88.30;;;;;;4954297;29;20510;-77
2022/01/06 00:47:21;;;;;;;9.73;3.67;;;3.70;88.60;;;;;;4954783;28;20266;-75
2022/01/06 00:49:48;;;;;;;8.67;4.00;;;3.80;88.70;;;;;;4961811;28;20510;-75
2022/01/06 00:52:13;;;;;;;10.03;4.23;;;3.70;88.90;;;;;;4958870;28;20239;-75
2022/01/06 00:54:40;;;;;;;7.77;4.67;;;3.70;89.20;;;;;;4961243;28;20946;-75
2022/01/06 00:57:05;;;;;;;11.03;4.03;;;3.70;89.50;;;;;;4957518;28;20671;-74
2022/01/06 00:59:31;;;;;;;10.30;3.57;;;3.60;89.70;;;;;;4956970;28;20437;-74
2022/01/06 01:01:57;;;;;;;10.90;4.50;;;3.60;90.10;;;;;;4951491;29;20203;-73
2022/01/06 01:04:23;;;;;;;8.20;4.17;;;3.60;90.10;;;;;;4954609;28;20251;-74
2022/01/06 01:06:48;;;;;;;9.03;4.30;;;3.60;90.30;;;;;;4951094;28;20250;-75
2022/01/06 01:09:14;;;;;;;6.87;3.63;;;3.50;90.40;;;;;;4956859;28;20222;-76
2022/01/06 01:11:40;;;;;;;8.00;4.03;;;3.60;90.50;;;;;;4956070;28;20207;-75
2022/01/06 01:14:25;;;;;;;8.87;4.13;;;3.50;90.10;;;;;;4958541;28;20211;-74
2022/01/06 01:16:59;;;;;;;7.53;3.90;;;3.50;90.20;;;;;;4954440;28;20176;-75
2022/01/06 01:19:27;;;;;;;10.47;4.60;;;3.50;90.30;;;;;;4954628;28;20509;-75
2022/01/06 01:21:54;;;;;;;16.10;4.60;;;3.50;90.30;;;;;;4959216;28;20450;-75
2022/01/06 01:24:20;;;;;;;8.53;3.90;;;3.50;90.20;;;;;;4963780;28;20453;-74
2022/01/06 01:26:47;;;;;;;7.60;4.10;;;3.60;90.20;;;;;;4959964;28;20529;-74
2022/01/06 01:29:16;;;;;;;9.70;4.37;;;3.70;90.30;;;;;;4961978;28;20806;-74
2022/01/06 01:31:48;;;;;;;10.47;4.00;;;3.70;90.10;;;;;;4954653;28;20833;-74
2022/01/06 01:34:16;;;;;;;11.67;3.77;;;3.80;89.90;;;;;;4957909;28;20440;-74
2022/01/06 01:36:43;;;;;;;7.20;4.33;;;3.90;89.50;;;;;;4960928;28;20426;-74
2022/01/06 01:39:09;;;;;;;7.60;3.93;;;3.80;88.90;;;;;;4958985;28;20442;-74
2022/01/06 01:41:35;;;;;;;8.90;4.00;;;3.70;89.60;;;;;;4953543;28;20435;-74
2022/01/06 01:44:05;;;;;;;7.17;3.77;;;3.70;90.10;;;;;;4959172;28;20490;-75
2022/01/06 01:46:30;;;;;;;8.87;3.77;;;3.60;90.60;;;;;;4962934;28;20202;-74
2022/01/06 01:49:30;;;;;;;6.47;3.60;;;3.60;90.70;;;;;;4959756;28;20416;-75
2022/01/06 01:51:56;;;;;;;6.50;4.40;;;3.60;90.90;;;;;;4950715;28;20184;-73
2022/01/06 01:54:21;;;;;;;13.13;4.10;;;3.50;91.20;;;;;;4962703;28;20530;-73
2022/01/06 01:56:47;;;;;;;16.77;4.63;;;3.60;91.30;;;;;;4959676;28;20187;-75
2022/01/06 01:59:13;;;;;;;7.20;3.53;;;3.60;91.50;;;;;;4963435;28;20207;-74
2022/01/06 02:01:41;;;;;;;7.80;3.73;;;3.60;91.60;;;;;;4962297;28;20270;-73
2022/01/06 02:04:07;;;;;;;12.27;4.67;;;3.50;91.50;;;;;;4957815;28;20937;-75
2022/01/06 02:06:32;;;;;;;7.63;3.93;;;3.50;91.70;;;;;;4963117;28;20596;-75
2022/01/06 02:08:59;;;;;;;16.03;5.00;;;3.60;92.00;;;;;;4958388;28;20191;-73
2022/01/06 02:11:25;;;;;;;16.93;4.67;;;3.60;91.90;;;;;;4958419;28;20259;-74
2022/01/06 02:13:53;;;;;;;6.43;3.63;;;3.70;91.90;;;;;;4958837;28;20542;-74
2022/01/06 02:16:24;;;;;;;13.60;4.07;;;3.70;91.80;;;;;;4959919;28;20184;-74
2022/01/06 02:18:50;;;;;;;8.50;4.70;;;3.70;91.80;;;;;;4970440;28;20426;-74
2022/01/06 02:21:16;;;;;;;27.77;6.90;;;3.60;91.70;;;;;;4971766;28;20435;-74
2022/01/06 02:23:43;;;;;;;16.33;4.63;;;3.60;92.00;;;;;;4964402;28;20501;-73
2022/01/06 02:26:08;;;;;;;11.67;4.43;;;3.60;92.00;;;;;;4957450;28;20853;-75
2022/01/06 02:28:34;;;;;;;9.10;4.13;;;3.60;91.90;;;;;;4962750;28;20423;-75
2022/01/06 02:31:00;;;;;;;10.30;4.50;;;3.60;92.10;;;;;;4959586;28;20427;-75
2022/01/06 02:33:27;;;;;;;9.90;4.27;;;3.60;92.20;;;;;;4957735;28;20447;-74
2022/01/06 02:35:54;;;;;;;11.10;5.00;;;3.60;92.20;;;;;;4952034;28;20420;-74
2022/01/06 02:38:21;;;;;;;10.83;3.97;;;3.60;92.20;;;;;;4955391;28;20424;-74
2022/01/06 02:40:47;;;;;;;11.60;4.23;;;3.60;92.10;;;;;;4953645;28;20423;-75
2022/01/06 02:43:16;;;;;;;6.97;3.83;;;3.60;92.10;;;;;;4956611;28;20457;-73
2022/01/06 02:45:42;;;;;;;10.70;3.67;;;3.60;92.00;;;;;;4961216;28;20591;-73
2022/01/06 02:48:08;;;;;;;10.50;3.97;;;3.60;91.90;;;;;;4955884;28;20427;-74
2022/01/06 02:50:39;;;;;;;4.40;3.30;;;3.50;92.00;;;;;;4956488;28;20482;-74
2022/01/06 02:53:06;;;;;;;4.80;3.73;;;3.60;92.00;;;;;;4957304;28;20483;-74
2022/01/06 02:55:33;;;;;;;7.97;4.20;;;3.60;92.00;;;;;;4952987;28;20966;-74
2022/01/06 02:57:59;;;;;;;11.60;4.40;;;3.50;91.90;;;;;;4959102;28;20979;-74
2022/01/06 03:00:25;;;;;;;7.90;3.30;;;3.60;91.90;;;;;;4956492;28;20427;-74
2022/01/06 03:02:50;;;;;;;9.63;3.80;;;3.50;91.70;;;;;;4952931;29;20428;-74
2022/01/06 03:05:17;;;;;;;11.20;4.77;;;3.60;91.80;;;;;;4962301;28;20529;-74
2022/01/06 03:07:44;;;;;;;6.80;3.70;;;3.60;91.30;;;;;;4961049;28;20195;-74
2022/01/06 03:10:13;;;;;;;8.63;3.20;;;3.60;91.30;;;;;;4952913;28;20416;-74
2022/01/06 03:12:39;;;;;;;5.10;3.30;;;3.60;91.20;;;;;;4961950;28;20422;-74
2022/01/06 03:15:11;;;;;;;6.47;3.60;;;3.60;91.20;;;;;;4965488;28;20463;-75
2022/01/06 03:17:38;;;;;;;7.57;3.93;;;3.60;91.20;;;;;;4960541;28;20517;-74
2022/01/06 03:20:06;;;;;;;9.07;4.20;;;3.70;91.10;;;;;;4957296;28;20451;-76
2022/01/06 03:22:32;;;;;;;10.10;3.83;;;3.70;91.00;;;;;;4968667;28;20505;-74
2022/01/06 03:24:58;;;;;;;8.87;3.50;;;3.70;91.00;;;;;;4958745;28;20535;-74
2022/01/06 03:27:23;;;;;;;9.93;3.40;;;3.80;90.90;;;;;;4970987;28;20215;-74
2022/01/06 03:29:50;;;;;;;8.77;3.60;;;3.80;90.60;;;;;;4961820;28;20215;-74
2022/01/06 03:32:19;;;;;;;8.87;4.53;;;3.80;90.50;;;;;;4955063;28;20184;-74
2022/01/06 03:34:46;;;;;;;13.50;4.07;;;3.80;90.50;;;;;;4964123;28;20521;-74
2022/01/06 03:37:12;;;;;;;9.03;3.80;;;3.80;90.70;;;;;;4961528;28;20434;-74
2022/01/06 03:39:39;;;;;;;9.40;3.70;;;3.80;90.80;;;;;;4966297;28;20426;-75
2022/01/06 03:42:05;;;;;;;8.90;3.43;;;3.80;90.80;;;;;;4955487;28;20522;-74
2022/01/06 03:44:31;;;;;;;7.90;4.03;;;3.90;91.00;;;;;;4950987;28;20450;-75
2022/01/06 03:46:57;;;;;;;5.93;3.40;;;3.90;91.10;;;;;;4951475;28;20459;-75
2022/01/06 03:49:23;;;;;;;10.13;3.90;;;3.80;91.10;;;;;;4951886;28;20415;-74
2022/01/06 03:51:49;;;;;;;6.63;4.03;;;3.90;91.30;;;;;;4961209;28;20440;-74
2022/01/06 03:54:15;;;;;;;8.37;3.70;;;3.90;91.40;;;;;;4962888;28;20463;-75
2022/01/06 03:56:41;;;;;;;11.30;3.63;;;3.80;91.40;;;;;;4954660;28;20427;-74
2022/01/06 03:59:07;;;;;;;6.77;3.60;;;3.80;91.60;;;;;;4950620;28;20442;-72
2022/01/06 04:01:33;;;;;;;9.70;3.83;;;3.80;91.80;;;;;;4950617;29;21094;-73
2022/01/06 04:03:59;;;;;;;5.80;3.30;;;3.70;91.60;;;;;;4954730;28;20223;-73
2022/01/06 04:06:25;;;;;;;4.17;3.00;;;3.70;91.70;;;;;;4955291;28;20467;-74
2022/01/06 04:08:51;;;;;;;7.20;3.53;;;3.60;91.90;;;;;;4952756;28;20315;-73
2022/01/06 04:11:17;;;;;;;7.13;3.60;;;3.60;92.00;;;;;;4955074;28;20273;-73
2022/01/06 04:13:43;;;;;;;9.00;3.33;;;3.60;92.10;;;;;;4952903;28;20216;-74
2022/01/06 04:16:13;;;;;;;8.37;3.67;;;3.60;92.20;;;;;;4956850;28;20435;-73
2022/01/06 04:18:39;;;;;;;9.40;4.00;;;3.60;92.20;;;;;;4957790;28;20950;-73
2022/01/06 04:21:06;;;;;;;5.50;3.50;;;3.60;92.20;;;;;;4951934;28;20907;-75
2022/01/06 04:23:35;;;;;;;11.43;3.30;;;3.60;92.10;;;;;;4952172;28;20462;-74
2022/01/06 04:26:01;;;;;;;5.63;3.47;;;3.60;92.10;;;;;;4956050;28;20898;-74
2022/01/06 04:28:27;;;;;;;8.03;3.30;;;3.70;92.10;;;;;;4957524;28;20419;-74
2022/01/06 04:30:52;;;;;;;5.73;3.63;;;3.70;92.10;;;;;;4950698;28;21230;-75
2022/01/06 04:33:18;;;;;;;10.77;3.70;;;3.70;92.00;;;;;;4953660;28;20451;-74
2022/01/06 04:35:44;;;;;;;6.70;3.37;;;3.80;91.60;;;;;;4952485;28;20203;-75
2022/01/06 04:38:10;;;;;;;8.00;3.90;;;3.80;91.50;;;;;;4950492;28;20427;-76
2022/01/06 04:40:36;;;;;;;11.27;4.00;;;3.80;91.70;;;;;;4953035;28;20427;-76
2022/01/06 04:43:02;;;;;;;13.13;4.23;;;3.80;91.70;;;;;;4952071;28;20342;-76
2022/01/06 04:45:28;;;;;;;8.60;4.10;;;3.80;91.60;;;;;;4952022;29;20499;-76
2022/01/06 04:47:54;;;;;;;8.97;3.57;;;3.80;91.40;;;;;;4950577;29;20188;-74
2022/01/06 04:50:19;;;;;;;5.83;3.60;;;3.80;91.50;;;;;;4952202;28;20431;-75
2022/01/06 04:52:45;;;;;;;8.53;3.70;;;3.80;91.60;;;;;;4956009;28;20188;-74
2022/01/06 04:55:11;;;;;;;6.80;3.47;;;3.80;91.60;;;;;;4954806;28;20644;-75
2022/01/06 04:57:37;;;;;;;7.53;3.60;;;3.80;91.70;;;;;;4951587;28;20203;-73
2022/01/06 05:00:05;;;;;;;6.03;3.30;;;3.80;91.70;;;;;;4953744;28;20243;-76
2022/01/06 05:02:30;;;;;;;7.67;4.23;;;3.80;91.80;;;;;;4951271;28;20192;-74
2022/01/06 05:04:56;;;;;;;7.00;3.30;;;3.80;91.70;;;;;;4952052;28;20458;-72
2022/01/06 05:07:22;;;;;;;10.40;4.13;;;3.80;91.90;;;;;;4954149;28;20219;-74
2022/01/06 05:09:48;;;;;;;7.53;3.20;;;3.70;91.90;;;;;;4960518;28;20203;-75
2022/01/06 05:12:14;;;;;;;5.87;3.43;;;3.70;92.10;;;;;;4957047;28;20211;-74
2022/01/06 05:14:40;;;;;;;10.80;3.70;;;3.70;92.20;;;;;;4962897;28;20453;-75
2022/01/06 05:17:07;;;;;;;8.13;4.03;;;3.70;92.30;;;;;;4958477;28;20198;-74
2022/01/06 05:19:32;;;;;;;7.87;3.80;;;3.70;92.10;;;;;;4957544;28;20204;-74
2022/01/06 05:21:59;;;;;;;5.43;3.70;;;3.70;92.20;;;;;;4954520;28;20439;-74
2022/01/06 05:24:25;;;;;;;5.83;3.80;;;3.60;92.20;;;;;;4955648;28;20212;-74
2022/01/06 05:26:54;;;;;;;6.63;3.80;;;3.60;92.30;;;;;;4957857;28;20467;-74
2022/01/06 05:29:20;;;;;;;6.20;3.87;;;3.60;92.30;;;;;;4956178;28;20450;-75
2022/01/06 05:31:45;;;;;;;8.63;3.93;;;3.60;92.30;;;;;;4962282;28;20913;-74
2022/01/06 05:34:11;;;;;;;9.43;4.20;;;3.60;92.30;;;;;;4953769;29;20259;-73
2022/01/06 05:36:37;;;;;;;7.43;3.87;;;3.50;92.40;;;;;;4964233;28;20191;-74
2022/01/06 05:39:03;;;;;;;8.00;3.90;;;3.50;92.50;;;;;;4958456;28;20912;-75
2022/01/06 05:41:29;;;;;;;9.83;4.30;;;3.50;92.40;;;;;;4952601;28;20459;-75
2022/01/06 05:43:55;;;;;;;13.75;4.40;;;3.60;92.50;;;;;;4959139;28;20451;-75
2022/01/06 05:46:21;;;;;;;6.63;4.20;;;3.60;92.40;;;;;;4952950;28;20215;-75
2022/01/06 05:48:47;;;;;;;7.20;4.20;;;3.60;92.40;;;;;;4952458;28;20215;-74
2022/01/06 05:51:13;;;;;;;6.57;4.00;;;3.70;92.40;;;;;;4956145;28;20199;-75
2022/01/06 05:53:39;;;;;;;8.47;3.83;;;3.70;92.30;;;;;;4962583;28;20446;-75
2022/01/06 05:56:05;;;;;;;6.13;3.63;;;3.80;92.20;;;;;;4957911;28;20957;-74
2022/01/06 05:58:31;;;;;;;9.37;4.10;;;3.80;92.20;;;;;;4958592;28;20428;-74
2022/01/06 06:00:57;;;;;;;12.47;4.20;;;3.80;91.80;;;;;;4960605;28;20533;-74
2022/01/06 06:03:27;;;;;;;7.50;3.50;;;3.80;91.70;;;;;;4961440;28;20459;-74
2022/01/06 06:05:53;;;;;;;7.10;3.33;;;3.70;91.70;;;;;;4959273;28;20620;-75
2022/01/06 06:08:19;;;;;;;9.40;4.10;;;3.80;91.80;;;;;;4957851;28;20271;-75
2022/01/06 06:10:45;;;;;;;7.27;3.50;;;3.80;91.80;;;;;;4955343;28;20266;-74
2022/01/06 06:13:10;;;;;;;5.50;3.57;;;3.70;91.90;;;;;;4958285;28;20208;-74
2022/01/06 06:15:36;;;;;;;10.00;4.03;;;3.80;91.90;;;;;;4963389;28;20294;-73
2022/01/06 06:18:07;;;;;;;6.67;3.80;;;3.80;91.90;;;;;;4953834;28;20275;-74
2022/01/06 06:20:33;;;;;;;10.00;3.90;;;3.80;91.80;;;;;;4954107;28;20293;-74
2022/01/06 06:22:59;;;;;;;13.43;3.80;;;3.80;91.90;;;;;;4959490;28;20534;-74
2022/01/06 06:25:25;;;;;;;7.03;3.60;;;3.70;91.90;;;;;;4952300;28;20239;-74
2022/01/06 06:27:51;;;;;;;14.40;4.60;;;3.70;91.90;;;;;;4953115;29;20424;-75
2022/01/06 06:30:18;;;;;;;6.32;3.85;;;3.80;92.10;;;;;;4961495;28;20465;-74
2022/01/06 06:32:44;;;;;;;7.47;3.97;;;3.70;91.90;;;;;;4955188;28;20568;-75
2022/01/06 06:35:10;;;;;;;6.70;3.60;;;3.60;92.10;;;;;;4953935;28;20423;-76
2022/01/06 06:37:36;;;;;;;12.27;4.50;;;3.60;92.30;;;;;;4954137;28;20479;-76
2022/01/06 06:40:03;;;;;;;8.03;3.20;;;3.60;92.20;;;;;;4954116;28;20816;-75
2022/01/06 06:42:29;;;;;;;13.77;3.33;;;3.60;92.20;;;;;;4954165;29;20434;-75
2022/01/06 06:44:55;;;;;;;6.80;3.53;;;3.60;92.20;;;;;;4953952;28;20443;-75
2022/01/06 06:47:21;;;;;;;6.10;3.50;;;3.60;92.20;;;;;;4956175;28;20499;-75
2022/01/06 06:49:47;;;;;;;10.43;4.00;;;3.70;92.30;;;;;;4960545;28;20423;-75
2022/01/06 06:52:13;;;;;;;6.57;3.57;;;3.70;92.20;;;;;;4960389;28;20644;-73
2022/01/06 06:54:38;;;;;;;25.48;4.68;;;3.70;92.20;;;;;;4961375;28;20227;-73
2022/01/06 06:57:05;;;;;;;7.60;3.73;;;3.80;92.00;;;;;;4957691;28;20180;-73
2022/01/06 06:59:31;;;;;;;8.47;4.40;;;3.70;91.90;;;;;;4956843;28;20206;-74
2022/01/06 07:01:57;;;;;;;9.33;3.50;;;3.70;91.60;;;;;;4952533;28;20427;-72
2022/01/06 07:04:23;;;;;;;11.33;4.10;;;3.70;91.80;;;;;;4958305;28;20701;-73
2022/01/06 07:06:49;;;;;;;8.67;3.90;;;3.70;91.80;;;;;;4960323;28;20467;-74
2022/01/06 07:09:15;;;;;;;7.37;3.87;;;3.70;91.80;;;;;;4959812;28;20195;-73
2022/01/06 07:11:41;;;;;;;6.70;3.80;;;3.70;91.90;;;;;;4955742;28;20898;-73
2022/01/06 07:14:07;;;;;;;13.43;4.30;;;3.70;91.70;;;;;;4966209;28;20284;-73
2022/01/06 07:16:33;;;;;;;12.83;4.20;;;3.80;91.70;;;;;;4956485;28;20198;-73
2022/01/06 07:18:59;;;;;;;9.23;3.37;;;3.80;91.70;;;;;;4957575;28;20219;-74
2022/01/06 07:21:25;;;;;;;9.97;3.50;;;3.80;91.80;;;;;;4960447;28;20491;-74
2022/01/06 07:23:52;;;;;;;6.90;3.40;;;3.80;91.70;;;;;;4962200;28;20447;-75
2022/01/06 07:26:18;;;;;;;7.30;4.00;;;3.80;91.70;;;;;;4955318;28;20498;-74
2022/01/06 07:28:44;;;;;;;6.70;3.60;;;3.80;91.50;;;;;;4963544;28;20429;-72
2022/01/06 07:31:11;;;;;;;7.77;3.53;;;3.80;91.50;;;;;;4954561;28;20817;-74
2022/01/06 07:33:37;;;;;;;5.50;3.53;;;3.80;91.40;;;;;;4960076;28;20534;-74
2022/01/06 07:36:03;;;;;;;7.80;3.67;;;3.90;91.30;;;;;;4958811;28;20607;-74
2022/01/06 07:38:29;;;;;;;8.80;4.23;;;3.90;91.20;;;;;;4958855;28;20201;-73
2022/01/06 07:40:55;;;;;;;9.40;4.10;;;3.80;91.20;;;;;;4958670;28;20431;-74
2022/01/06 07:43:24;;;;;;;9.03;3.50;;;3.80;91.20;;;;;;4951970;28;20454;-75
2022/01/06 07:45:50;;;;;;;7.10;3.80;;;3.80;91.30;;;;;;4951901;28;21042;-74
2022/01/06 07:48:19;;;;;;;8.80;3.83;;;3.80;91.30;;;;;;4960438;28;20433;-75
2022/01/06 07:50:46;;;;;;;9.07;3.90;;;3.80;91.20;;;;;;4952703;28;20535;-75
2022/01/06 07:53:12;;;;;;;9.63;3.73;;;3.80;91.20;;;;;;4956735;28;20651;-75
2022/01/06 07:55:39;;;;;;;10.17;4.13;;;3.80;91.20;;;;;;4953327;28;20447;-75
2022/01/06 07:58:05;;;;;;;12.13;3.60;;;3.80;91.10;;;;;;4956766;28;20427;-75
2022/01/06 08:00:31;;;;;;;9.93;4.10;;;3.70;91.10;;;;;;4951842;28;20926;-74
2022/01/06 08:02:57;;;;;;;8.93;3.70;;;3.70;91.10;;;;;;4959386;28;20424;-74
2022/01/06 08:05:26;;;;;;;7.53;3.77;;;3.70;91.10;;;;;;4956157;28;20435;-73
2022/01/06 08:07:53;;;;;;;12.57;4.50;;;3.60;91.10;;;;;;4951580;28;20496;-74
2022/01/06 08:10:19;;;;;;;8.73;4.37;;;3.70;91.30;;;;;;4952143;28;20416;-76
2022/01/06 08:12:45;;;;;;;8.33;3.77;;;3.60;91.20;;;;;;4951807;28;20457;-75
2022/01/06 08:15:11;;;;;;;8.30;4.20;;;3.50;91.30;;;;;;4959113;28;21008;-74
2022/01/06 08:17:38;;;;;;;8.53;3.90;;;3.60;91.30;;;;;;4951526;28;20184;-75
2022/01/06 08:20:05;;;;;;;7.60;3.60;;;3.50;91.40;;;;;;4953710;28;20420;-75
2022/01/06 08:22:31;;;;;;;8.17;3.93;;;3.60;91.60;;;;;;4954207;28;20439;-74
2022/01/06 08:24:57;;;;;;;11.83;4.07;;;3.60;91.50;;;;;;4955213;28;20531;-74
2022/01/06 08:27:23;;;;;;;9.43;4.90;;;3.60;91.50;;;;;;4953260;28;20533;-74
2022/01/06 08:29:52;;;;;;;7.10;3.90;;;3.60;91.50;;;;;;4954328;28;20420;-74
2022/01/06 08:32:19;;;;;;;14.63;4.77;;;3.70;91.50;;;;;;4958191;28;20424;-76
2022/01/06 08:34:45;;;;;;;13.10;5.20;;;3.70;91.50;;;;;;4960531;28;20451;-75
2022/01/06 08:37:10;;;;;;;11.87;4.00;;;3.70;91.50;;;;;;4961973;28;20530;-75
2022/01/06 08:39:36;;;;;;;8.47;4.07;;;3.60;91.30;;;;;;4956673;28;20435;-74
2022/01/06 08:42:03;;;;;;;11.27;5.10;;;3.70;91.30;;;;;;4959317;28;20247;-75
2022/01/06 08:44:28;;;;;;;9.57;3.90;;;3.60;91.30;;;;;;4955445;28;20707;-75
2022/01/06 08:46:55;;;;;;;6.27;3.70;;;3.60;91.50;;;;;;4958552;28;20569;-73
2022/01/06 08:49:21;;;;;;;10.20;4.63;;;3.60;91.60;;;;;;4961940;28;20206;-73
2022/01/06 08:51:48;;;;;;;8.10;4.27;;;3.60;91.60;;;;;;4960213;28;20816;-74
2022/01/06 08:54:14;;;;;;;6.17;3.40;;;3.60;91.50;;;;;;4962532;28;20463;-75
2022/01/06 08:56:39;;;;;;;7.10;3.53;;;3.60;91.70;;;;;;4961097;28;20999;-74
2022/01/06 08:59:05;;;;;;;9.00;4.73;;;3.70;91.60;;;;;;4956469;28;20275;-75
2022/01/06 09:01:32;;;;;;;7.90;3.80;;;3.70;91.50;;;;;;4965459;28;20195;-74
2022/01/06 09:03:58;;;;;;;8.10;4.00;;;3.80;90.90;;;;;;4954626;28;20203;-72
2022/01/06 09:06:24;;;;;;;13.20;4.33;;;3.80;90.80;;;;;;4953605;28;20471;-74
2022/01/06 09:08:50;;;;;;;11.63;3.93;;;3.80;90.80;;;;;;4954522;28;20422;-75
2022/01/06 09:11:16;;;;;;;8.70;4.23;;;3.90;90.60;;;;;;4955264;28;20431;-74
2022/01/06 09:13:42;;;;;;;6.87;3.83;;;3.90;90.50;;;;;;4956063;28;20869;-74
2022/01/06 09:16:08;;;;;;;7.23;4.00;;;3.90;90.40;;;;;;4964101;28;20470;-75
2022/01/06 09:18:38;;;;;;;8.70;3.87;;;3.90;90.50;;;;;;4955348;28;20187;-76
2022/01/06 09:21:05;;;;;;;10.30;4.83;;;4.00;90.50;;;;;;4959935;28;20420;-75
2022/01/06 09:23:31;;;;;;;9.83;4.60;;;4.00;90.40;;;;;;4962289;28;20449;-75
2022/01/06 09:25:57;;;;;;;13.83;4.97;;;4.00;90.10;;;;;;4959836;28;20467;-76
2022/01/06 09:28:23;;;;;;;6.97;3.80;;;4.00;90.00;;;;;;4958757;28;20427;-75
2022/01/06 09:30:52;;;;;;;9.83;3.90;;;4.10;89.90;;;;;;4957572;28;20662;-76
2022/01/06 09:33:19;;;;;;;15.03;4.50;;;4.20;89.60;;;;;;4958636;28;20207;-74
2022/01/06 09:35:46;;;;;;;8.80;4.00;;;4.10;88.90;;;;;;4964743;28;20428;-74
2022/01/06 09:38:13;;;;;;;7.57;3.80;;;4.10;88.90;;;;;;4957683;28;20948;-76
2022/01/06 09:40:43;;;;;;;15.80;4.83;;;4.10;88.90;;;;;;4955836;28;20430;-75
2022/01/06 09:43:12;;;;;;;8.10;3.97;;;4.20;88.90;;;;;;4958855;28;20946;-75
2022/01/06 09:45:38;;;;;;;13.00;4.73;;;4.20;88.60;;;;;;4955223;28;20478;-75
2022/01/06 09:48:05;;;;;;;8.13;3.90;;;4.30;88.30;;;;;;4954807;28;20515;-74
2022/01/06 09:50:31;;;;;;;10.53;4.40;;;4.30;88.10;;;;;;4954198;28;20527;-75
2022/01/06 09:52:57;;;;;;;7.97;4.17;;;4.30;88.00;;;;;;4961338;28;20493;-75
2022/01/06 09:55:23;;;;;;;7.83;3.80;;;4.40;88.00;;;;;;4958654;28;20452;-75
2022/01/06 09:58:00;;;;;;;11.30;4.10;;;4.40;87.70;;;;;;4960293;28;20502;-75
2022/01/06 10:00:28;;;;;;;8.40;3.87;;;4.50;87.30;;;;;;4956767;29;20194;-75
2022/01/06 10:02:56;;;;;;;10.17;3.97;;;4.60;86.80;;;;;;4958625;28;20426;-74
2022/01/06 10:05:23;;;;;;;9.70;3.90;;;4.70;86.20;;;;;;4960941;28;20428;-75
2022/01/06 10:07:49;;;;;;;8.60;4.20;;;4.80;85.70;;;;;;4956849;28;20998;-74
2022/01/06 10:10:15;;;;;;;7.00;4.13;;;4.80;85.20;;;;;;4958191;28;20427;-75
2022/01/06 10:12:42;;;;;;;10.10;3.63;;;4.70;85.50;;;;;;4956336;28;20423;-74
2022/01/06 10:15:21;;;;;;;12.00;4.23;;;4.70;85.50;;;;;;4958416;28;21363;-75
2022/01/06 10:17:48;;;;;;;15.00;4.07;;;4.60;85.70;;;;;;4951076;29;20953;-74
2022/01/06 10:20:20;;;;;;;7.37;4.07;;;4.60;86.00;;;;;;4952672;29;20424;-76
2022/01/06 10:22:51;;;;;;;11.77;4.60;;;4.70;85.70;;;;;;4952196;28;20520;-75
2022/01/06 10:25:19;;;;;;;9.10;3.97;;;4.70;85.70;;;;;;4957351;28;20418;-75
2022/01/06 10:27:46;;;;;;;13.17;4.03;;;4.70;85.60;;;;;;4955099;28;20526;-75
2022/01/06 10:30:13;;;;;;;10.63;3.90;;;4.70;85.30;;;;;;4958346;28;20506;-75
2022/01/06 10:32:40;;;;;;;9.73;3.97;;;4.80;85.30;;;;;;4954870;28;20716;-76
2022/01/06 10:35:08;;;;;;;7.93;5.03;;;4.70;84.40;;;;;;4956968;28;20459;-75
2022/01/06 10:37:42;;;;;;;11.40;3.67;;;4.80;84.30;;;;;;4954281;28;20522;-76
2022/01/06 10:40:10;;;;;;;7.73;3.40;;;4.80;83.30;;;;;;4954364;28;20415;-76
2022/01/06 10:42:38;;;;;;;7.70;3.43;;;4.60;83.30;;;;;;4954486;28;20463;-76
2022/01/06 10:45:11;;;;;;;7.20;3.60;;;4.60;83.80;;;;;;4960462;28;21234;-76
2022/01/06 10:47:42;;;;;;;11.53;3.73;;;4.60;83.60;;;;;;4955517;29;20467;-77
2022/01/06 10:50:22;;;;;;;13.17;4.43;;;4.50;83.60;;;;;;4947717;29;20891;-76
2022/01/06 10:52:48;;;;;;;11.97;3.50;;;4.50;83.80;;;;;;4957172;28;20482;-75
2022/01/06 10:55:19;;;;;;;10.83;3.53;;;4.50;84.30;;;;;;4959753;28;20475;-74
2022/01/06 10:58:11;;;;;;;8.67;2.93;;;4.70;84.10;;;;;;4957654;28;20187;-76
2022/01/06 11:00:48;;;;;;;9.80;3.90;;;4.80;83.10;;;;;;4954219;29;20777;-75
2022/01/06 11:03:15;;;;;;;20.13;4.53;;;4.80;83.10;;;;;;4952759;28;20831;-75
2022/01/06 11:05:50;;;;;;;9.30;3.60;;;4.80;83.30;;;;;;4953250;28;20431;-75
2022/01/06 11:08:20;;;;;;;6.63;3.70;;;4.80;83.40;;;;;;4958992;28;20922;-75
2022/01/06 11:10:51;;;;;;;7.57;3.67;;;5.00;83.30;;;;;;4957470;28;20430;-75
2022/01/06 11:13:17;;;;;;;8.70;3.47;;;5.00;82.70;;;;;;4961651;28;20439;-75
2022/01/06 11:15:44;;;;;;;5.87;3.30;;;5.10;82.70;;;;;;4957669;28;20463;-75
2022/01/06 11:18:17;;;;;;;7.63;2.70;;;5.20;82.10;;;;;;4957222;28;20451;-75
2022/01/06 11:20:43;;;;;;;14.57;3.73;;;5.20;81.50;;;;;;4956316;28;20510;-75
2022/01/06 11:23:23;;;;;;;12.77;4.30;;;5.00;81.50;;;;;;4953932;28;20479;-76
2022/01/06 11:26:06;;;;;;;5.63;3.10;;;4.90;81.90;;;;;;4956981;28;20454;-75
2022/01/06 11:28:33;;;;;;;5.83;3.30;;;5.00;82.10;;;;;;4964585;28;20430;-75
2022/01/06 11:31:15;;;;;;;8.37;5.07;;;4.90;81.20;;;;;;4952330;28;20416;-75
2022/01/06 11:33:43;;;;;;;11.30;3.63;;;4.90;82.20;;;;;;4954808;28;20545;-75
2022/01/06 11:36:32;;;;;;;11.50;4.30;;;5.00;82.10;;;;;;4952274;28;20427;-75
2022/01/06 11:39:02;;;;;;;9.93;3.23;;;5.00;82.10;;;;;;4943860;29;20463;-76
2022/01/06 11:41:38;;;;;;;7.90;4.03;;;5.00;81.80;;;;;;4951343;28;21200;-75
2022/01/06 11:44:16;;;;;;;6.27;2.97;;;5.10;81.50;;;;;;4952379;29;20486;-75
2022/01/06 11:46:46;;;;;;;10.93;4.00;;;5.20;81.20;;;;;;4955917;28;20497;-75
2022/01/06 11:49:12;;;;;;;8.93;3.00;;;5.30;80.80;;;;;;4953765;29;20431;-76
2022/01/06 11:51:38;;;;;;;9.23;3.43;;;5.40;80.60;;;;;;4950548;28;20439;-74
2022/01/06 11:54:19;;;;;;;10.47;4.50;;;5.30;79.90;;;;;;4951479;28;20489;-75
2022/01/06 11:56:47;;;;;;;9.63;3.30;;;5.40;80.00;;;;;;4950583;29;20698;-76
2022/01/06 11:59:14;;;;;;;9.93;3.57;;;5.40;80.50;;;;;;4952235;28;20601;-76
2022/01/06 12:01:50;;;;;;;11.03;3.27;;;5.30;80.50;;;;;;4958955;28;20415;-75
2022/01/06 12:04:23;;;;;;;5.93;2.83;;;5.30;80.50;;;;;;4954422;28;20810;-76
2022/01/06 12:06:50;;;;;;;10.67;3.17;;;5.20;79.60;;;;;;4954827;28;20471;-76
2022/01/06 12:09:20;;;;;;;12.53;5.20;;;5.20;80.20;;;;;;4958295;28;20549;-77
2022/01/06 12:11:57;;;;;;;14.00;4.43;;;5.30;80.30;;;;;;4951658;28;20438;-76
2022/01/06 12:14:26;;;;;;;6.27;2.90;;;5.30;79.50;;;;;;4955832;28;20452;-76
2022/01/06 12:16:52;;;;;;;11.67;3.83;;;5.50;79.20;;;;;;4959272;28;20429;-75
2022/01/06 12:19:18;;;;;;;8.30;3.03;;;5.60;79.90;;;;;;4964800;28;20521;-75
2022/01/06 12:21:47;;;;;;;7.80;3.20;;;5.60;78.70;;;;;;4963480;28;20435;-77
2022/01/06 12:24:13;;;;;;;11.20;3.70;;;5.70;78.70;;;;;;4960232;28;20455;-77
2022/01/06 12:26:40;;;;;;;6.27;2.93;;;5.60;77.70;;;;;;4959744;28;21009;-76
2022/01/06 12:29:18;;;;;;;8.27;3.60;;;5.60;77.00;;;;;;4961334;28;20431;-76
2022/01/06 12:31:44;;;;;;;8.07;3.17;;;5.60;77.40;;;;;;4960445;28;20425;-76
2022/01/06 12:34:12;;;;;;;4.63;3.03;;;5.60;77.40;;;;;;4961338;28;20533;-76
2022/01/06 12:36:43;;;;;;;10.40;3.07;;;5.30;77.00;;;;;;4967593;28;20475;-76
2022/01/06 12:39:14;;;;;;;11.33;3.23;;;5.10;78.00;;;;;;4961112;28;20429;-77
2022/01/06 12:41:41;;;;;;;12.30;3.33;;;5.10;79.20;;;;;;4964350;28;20423;-76
2022/01/06 12:44:09;;;;;;;25.63;3.80;;;5.10;80.00;;;;;;4963277;28;20451;-76
2022/01/06 12:46:38;;;;;;;11.17;3.40;;;5.10;80.20;;;;;;4963410;28;20909;-76
2022/01/06 12:49:09;;;;;;;10.00;2.97;;;4.90;80.20;;;;;;4962592;28;20415;-75
2022/01/06 12:51:41;;;;;;;8.57;3.40;;;4.80;81.20;;;;;;4964155;28;20454;-77
2022/01/06 12:54:13;;;;;;;12.53;3.67;;;4.90;81.50;;;;;;4960300;28;21061;-77
2022/01/06 12:56:44;;;;;;;7.87;3.30;;;4.80;81.40;;;;;;4959502;28;20419;-76
2022/01/06 12:59:12;;;;;;;9.87;3.80;;;4.90;81.20;;;;;;4959625;28;20422;-76